createdAt,value
2018-09-06T00:02:12.563Z,3.90
2018-09-06T00:04:40.392Z,4.07
2018-09-06T00:07:08.223Z,3.53
2018-09-06T00:09:36.051Z,3.77
2018-09-06T00:12:03.940Z,3.80
2018-09-06T00:14:31.847Z,3.70
2018-09-06T00:16:59.682Z,3.67
2018-09-06T00:19:27.512Z,4.10
2018-09-06T00:21:55.344Z,3.70
2018-09-06T00:24:23.304Z,4.43
2018-09-06T00:26:51.145Z,3.90
2018-09-06T00:29:18.992Z,4.37
2018-09-06T00:31:46.841Z,4.10
2018-09-06T00:34:14.676Z,3.90
2018-09-06T00:36:42.499Z,4.40
2018-09-06T00:39:10.554Z,4.50
2018-09-06T00:41:38.398Z,4.37
2018-09-06T00:44:06.266Z,3.77
2018-09-06T00:46:34.277Z,3.90
2018-09-06T00:49:02.176Z,3.50
2018-09-06T00:51:30.155Z,3.83
2018-09-06T00:53:57.982Z,3.73
2018-09-06T00:56:25.899Z,4.20
2018-09-06T00:58:53.872Z,3.87
2018-09-06T01:01:21.695Z,3.93
2018-09-06T01:03:49.534Z,4.13
2018-09-06T01:06:17.367Z,4.00
2018-09-06T01:08:45.180Z,4.20
2018-09-06T01:11:13.140Z,4.03
2018-09-06T01:13:40.963Z,3.90
2018-09-06T01:16:08.804Z,4.03
2018-09-06T01:18:36.683Z,4.00
2018-09-06T01:21:04.523Z,4.07
2018-09-06T01:23:32.363Z,3.90
2018-09-06T01:26:00.190Z,4.50
2018-09-06T01:28:28.412Z,4.57
2018-09-06T01:30:56.223Z,4.63
2018-09-06T01:33:24.040Z,4.20
2018-09-06T01:35:57.095Z,5.80
2018-09-06T01:38:24.981Z,4.23
2018-09-06T01:40:52.908Z,4.73
2018-09-06T01:43:20.851Z,5.57
2018-09-06T01:45:48.704Z,4.90
2018-09-06T01:48:16.538Z,5.30
2018-09-06T01:50:44.376Z,4.87
2018-09-06T01:53:12.197Z,4.93
2018-09-06T01:55:40.032Z,4.97
2018-09-06T01:58:07.864Z,4.50
2018-09-06T02:00:35.824Z,5.23
2018-09-06T02:03:03.690Z,5.20
2018-09-06T02:05:35.856Z,4.70
2018-09-06T02:08:04.413Z,4.97
2018-09-06T02:10:33.296Z,4.97
2018-09-06T02:13:01.221Z,4.77
2018-09-06T02:15:29.160Z,4.90
2018-09-06T02:17:56.998Z,4.80
2018-09-06T02:20:24.967Z,5.27
2018-09-06T02:22:52.827Z,5.47
2018-09-06T02:25:20.791Z,5.13
2018-09-06T02:27:48.619Z,5.33
2018-09-06T02:30:16.470Z,5.83
2018-09-06T02:32:44.454Z,6.00
2018-09-06T02:35:12.289Z,6.30
2018-09-06T02:37:40.120Z,5.83
2018-09-06T02:40:09.996Z,7.27
2018-09-06T02:42:37.816Z,6.87
2018-09-06T02:45:05.658Z,6.63
2018-09-06T02:47:33.591Z,6.83
2018-09-06T02:50:06.634Z,6.37
2018-09-06T02:52:34.483Z,6.17
2018-09-06T02:55:02.331Z,5.93
2018-09-06T02:57:30.157Z,6.83
2018-09-06T02:59:58.014Z,5.87
2018-09-06T03:02:25.855Z,6.33
2018-09-06T03:04:53.746Z,6.00
2018-09-06T03:07:21.604Z,5.70
2018-09-06T03:09:49.478Z,7.17
2018-09-06T03:12:17.484Z,6.57
2018-09-06T03:14:45.376Z,6.07
2018-09-06T03:17:13.265Z,6.33
2018-09-06T03:19:41.078Z,6.33
2018-09-06T03:22:08.897Z,6.80
2018-09-06T03:24:36.744Z,6.37
2018-09-06T03:27:04.579Z,6.50
2018-09-06T03:29:32.401Z,6.73
2018-09-06T03:32:00.231Z,7.43
2018-09-06T03:34:28.068Z,7.00
2018-09-06T03:36:55.950Z,6.47
2018-09-06T03:39:23.821Z,6.37
2018-09-06T03:41:51.643Z,6.83
2018-09-06T03:44:19.461Z,6.27
2018-09-06T03:46:47.427Z,6.40
2018-09-06T03:49:15.263Z,6.27
2018-09-06T03:51:43.087Z,6.60
2018-09-06T03:54:10.922Z,7.20
2018-09-06T03:56:38.747Z,6.03
2018-09-06T03:59:06.635Z,6.53
2018-09-06T04:01:34.464Z,7.10
2018-09-06T04:04:02.306Z,6.00
2018-09-06T04:06:30.140Z,5.87
2018-09-06T04:08:58.313Z,5.47
2018-09-06T04:11:26.147Z,5.37
2018-09-06T04:13:54.011Z,5.57
2018-09-06T04:16:21.842Z,4.37
2018-09-06T04:18:50.508Z,5.27
2018-09-06T04:21:18.886Z,4.87
2018-09-06T04:23:48.461Z,5.20
2018-09-06T04:26:17.154Z,4.70
2018-09-06T04:28:45.609Z,4.50
2018-09-06T04:31:14.252Z,4.83
2018-09-06T04:33:42.998Z,4.80
2018-09-06T04:36:11.606Z,4.50
2018-09-06T04:38:40.183Z,4.27
2018-09-06T04:41:08.979Z,4.57
2018-09-06T04:43:37.567Z,4.63
2018-09-06T04:46:06.067Z,5.10
2018-09-06T04:48:34.522Z,4.20
2018-09-06T04:51:03.164Z,5.27
2018-09-06T04:53:31.574Z,5.20
2018-09-06T04:56:00.248Z,4.30
2018-09-06T04:58:28.871Z,4.07
2018-09-06T05:00:57.496Z,4.30
2018-09-06T05:03:25.930Z,4.43
2018-09-06T05:05:54.399Z,4.30
2018-09-06T05:08:23.002Z,4.80
2018-09-06T05:10:51.553Z,4.80
2018-09-06T05:13:20.445Z,4.67
2018-09-06T05:15:48.795Z,5.37
2018-09-06T05:18:17.424Z,4.47
2018-09-06T05:20:46.117Z,5.27
2018-09-06T05:23:14.644Z,4.70
2018-09-06T05:25:43.270Z,5.17
2018-09-06T05:28:11.904Z,4.87
2018-09-06T05:30:40.482Z,4.67
2018-09-06T05:33:08.976Z,4.70
2018-09-06T05:35:37.420Z,4.27
2018-09-06T05:38:06.055Z,4.87
2018-09-06T05:40:33.919Z,4.87
2018-09-06T05:43:01.764Z,5.00
2018-09-06T05:45:30.207Z,4.83
2018-09-06T05:47:58.681Z,5.10
2018-09-06T05:50:27.518Z,4.70
2018-09-06T05:52:55.360Z,4.97
2018-09-06T05:55:23.555Z,4.43
2018-09-06T05:57:51.509Z,4.80
2018-09-06T06:00:24.547Z,4.63
2018-09-06T06:02:53.435Z,5.03
2018-09-06T06:05:21.401Z,5.00
2018-09-06T06:07:54.508Z,4.77
2018-09-06T06:10:22.340Z,4.93
2018-09-06T06:12:50.895Z,4.87
2018-09-06T06:15:18.859Z,4.97
2018-09-06T06:17:46.748Z,4.77
2018-09-06T06:20:14.601Z,4.80
2018-09-06T06:22:42.771Z,5.00
2018-09-06T06:25:10.647Z,5.03
2018-09-06T06:27:38.479Z,5.87
2018-09-06T06:30:06.931Z,5.77
2018-09-06T06:32:35.498Z,4.87
2018-09-06T06:35:04.491Z,4.47
2018-09-06T06:37:32.491Z,4.87
2018-09-06T06:40:00.324Z,5.00
2018-09-06T06:42:28.182Z,4.73
2018-09-06T06:44:56.075Z,5.23
2018-09-06T06:47:23.949Z,4.60
2018-09-06T06:49:52.980Z,4.83
2018-09-06T06:52:21.115Z,4.67
2018-09-06T06:54:49.438Z,4.97
2018-09-06T06:57:17.667Z,4.57
2018-09-06T06:59:45.533Z,5.07
2018-09-06T07:02:13.383Z,4.70
2018-09-06T07:04:41.358Z,4.30
2018-09-06T07:07:09.957Z,4.90
2018-09-06T07:09:38.343Z,4.63
2018-09-06T07:12:06.960Z,4.73
2018-09-06T07:14:35.612Z,4.40
2018-09-06T07:17:04.235Z,4.80
2018-09-06T07:19:32.666Z,4.03
2018-09-06T07:22:00.534Z,4.67
2018-09-06T07:24:28.367Z,4.40
2018-09-06T07:26:56.355Z,4.70
2018-09-06T07:29:24.187Z,3.83
2018-09-06T07:31:52.716Z,4.53
2018-09-06T07:34:21.366Z,3.80
2018-09-06T07:36:49.997Z,4.13
2018-09-06T07:39:18.631Z,5.13
2018-09-06T07:41:47.065Z,4.37
2018-09-06T07:44:15.695Z,3.70
2018-09-06T07:46:44.348Z,4.07
2018-09-06T07:49:12.175Z,3.90
2018-09-06T07:51:40.006Z,3.73
2018-09-06T07:54:07.896Z,4.07
2018-09-06T07:56:36.531Z,3.37
2018-09-06T07:59:04.419Z,4.13
2018-09-06T08:01:32.327Z,3.97
2018-09-06T08:04:00.220Z,4.03
2018-09-06T08:06:28.113Z,4.63
2018-09-06T08:08:56.760Z,5.10
2018-09-06T08:11:24.588Z,3.93
2018-09-06T08:13:52.416Z,4.90
2018-09-06T08:16:20.386Z,4.53
2018-09-06T08:18:48.269Z,4.47
2018-09-06T08:21:16.119Z,4.37
2018-09-06T08:23:43.991Z,4.67
2018-09-06T08:26:12.308Z,4.90
2018-09-06T08:28:40.139Z,5.57
2018-09-06T08:31:08.054Z,5.03
2018-09-06T08:33:36.040Z,5.57
2018-09-06T08:36:03.879Z,4.37
2018-09-06T08:38:31.695Z,5.37
2018-09-06T08:40:59.527Z,5.03
2018-09-06T08:43:27.424Z,5.00
2018-09-06T08:45:55.267Z,5.00
2018-09-06T08:48:23.095Z,4.40
2018-09-06T08:50:50.920Z,4.70
2018-09-06T08:53:18.815Z,4.27
2018-09-06T08:55:46.704Z,4.57
2018-09-06T08:58:14.794Z,4.53
2018-09-06T09:00:46.796Z,4.03
2018-09-06T09:03:14.687Z,4.57
2018-09-06T09:05:42.527Z,4.67
2018-09-06T09:08:10.381Z,3.97
2018-09-06T09:10:38.243Z,4.83
2018-09-06T09:13:06.498Z,4.63
2018-09-06T09:15:34.524Z,4.73
2018-09-06T09:18:02.370Z,5.00
2018-09-06T09:20:30.207Z,4.83
2018-09-06T09:22:58.147Z,5.13
2018-09-06T09:25:26.088Z,4.77
2018-09-06T09:27:54.043Z,4.70
2018-09-06T09:30:22.002Z,5.17
2018-09-06T09:32:50.056Z,4.73
2018-09-06T09:35:18.163Z,5.67
2018-09-06T09:37:46.441Z,4.43
2018-09-06T09:40:14.462Z,5.50
2018-09-06T09:42:42.331Z,4.97
2018-09-06T09:45:10.171Z,5.03
2018-09-06T09:50:05.219Z,4.80
2018-09-06T09:52:33.052Z,4.30
2018-09-06T09:55:00.880Z,4.80
2018-09-06T09:57:28.746Z,4.60
2018-09-06T09:59:56.580Z,4.80
2018-09-06T10:02:30.016Z,5.00
2018-09-06T10:05:03.070Z,5.03
2018-09-06T10:07:36.104Z,5.20
2018-09-06T10:10:04.005Z,4.97
2018-09-06T10:12:31.841Z,5.17
2018-09-06T10:14:59.729Z,5.57
2018-09-06T10:17:28.343Z,4.97
2018-09-06T10:19:56.859Z,4.37
2018-09-06T10:22:25.254Z,4.43
2018-09-06T10:24:53.851Z,4.60
2018-09-06T10:27:21.772Z,4.53
2018-09-06T10:29:49.663Z,4.27
2018-09-06T10:32:17.479Z,4.90
2018-09-06T10:34:45.967Z,4.87
2018-09-06T10:37:14.486Z,5.03
2018-09-06T10:39:43.137Z,4.67
2018-09-06T10:42:11.784Z,5.37
2018-09-06T10:44:40.422Z,4.83
2018-09-06T10:47:09.026Z,5.43
2018-09-06T10:49:37.238Z,5.70
2018-09-06T10:52:05.497Z,6.50
2018-09-06T10:54:33.722Z,7.10
2018-09-06T10:57:01.578Z,7.13
2018-09-06T10:59:30.124Z,7.13
2018-09-06T11:01:58.685Z,8.33
2018-09-06T11:04:27.188Z,7.63
2018-09-06T11:06:55.854Z,7.77
2018-09-06T11:09:24.198Z,7.40
2018-09-06T11:11:52.642Z,7.30
2018-09-06T11:14:21.307Z,7.57
2018-09-06T11:16:49.936Z,7.67
2018-09-06T11:19:18.546Z,9.43
2018-09-06T11:21:46.987Z,8.30
2018-09-06T11:24:15.406Z,8.90
2018-09-06T11:26:43.858Z,8.93
2018-09-06T11:29:12.094Z,9.83
2018-09-06T11:31:40.533Z,8.37
2018-09-06T11:34:08.782Z,7.93
2018-09-06T11:36:36.999Z,8.57
2018-09-06T11:39:07.294Z,8.60
2018-09-06T11:41:35.975Z,8.13
2018-09-06T11:44:04.499Z,7.90
2018-09-06T11:46:32.742Z,8.70
2018-09-06T11:49:00.592Z,7.80
2018-09-06T11:51:28.878Z,8.73
2018-09-06T11:53:56.732Z,9.73
2018-09-06T11:56:24.647Z,9.40
2018-09-06T11:58:52.526Z,8.83
2018-09-06T12:01:20.436Z,7.97
2018-09-06T12:03:48.497Z,10.43
2018-09-06T12:06:16.468Z,6.57
2018-09-06T12:08:44.271Z,6.00
2018-09-06T12:11:12.226Z,5.93
2018-09-06T12:13:40.088Z,8.03
2018-09-06T12:16:08.019Z,7.53
2018-09-06T12:18:35.889Z,7.70
2018-09-06T12:21:03.705Z,7.30
2018-09-06T12:23:31.627Z,8.47
2018-09-06T12:25:59.476Z,8.60
2018-09-06T12:28:27.424Z,7.33
2018-09-06T12:30:55.392Z,7.00
2018-09-06T12:33:23.995Z,6.30
2018-09-06T12:35:51.952Z,6.60
2018-09-06T12:38:19.806Z,7.30
2018-09-06T12:40:47.663Z,7.80
2018-09-06T12:43:16.304Z,7.77
2018-09-06T12:45:44.139Z,7.00
2018-09-06T12:48:12.011Z,7.67
2018-09-06T12:50:39.902Z,8.30
2018-09-06T12:53:07.730Z,7.37
2018-09-06T12:55:35.647Z,7.80
2018-09-06T12:58:03.612Z,8.33
2018-09-06T13:00:31.451Z,8.33
2018-09-06T13:02:59.305Z,7.80
2018-09-06T13:05:27.900Z,8.47
2018-09-06T13:07:56.533Z,8.87
2018-09-06T13:10:24.429Z,9.43
2018-09-06T13:12:52.248Z,9.63
2018-09-06T13:15:20.141Z,8.90
2018-09-06T13:17:48.008Z,8.57
2018-09-06T13:20:15.838Z,8.27
2018-09-06T13:22:43.685Z,8.73
2018-09-06T13:25:11.528Z,8.53
2018-09-06T13:27:39.385Z,8.90
2018-09-06T13:30:07.319Z,8.73
2018-09-06T13:32:35.145Z,7.93
2018-09-06T13:35:03.003Z,8.07
2018-09-06T13:37:30.838Z,9.20
2018-09-06T13:39:58.671Z,8.70
2018-09-06T13:42:26.476Z,8.70
2018-09-06T13:44:54.308Z,7.50
2018-09-06T13:47:22.171Z,8.13
2018-09-06T13:49:49.974Z,7.70
2018-09-06T13:52:17.900Z,7.70
2018-09-06T13:54:45.731Z,8.40
2018-09-06T13:57:13.622Z,8.57
2018-09-06T13:59:41.442Z,8.57
2018-09-06T14:02:09.394Z,8.60
2018-09-06T14:04:37.212Z,7.43
2018-09-06T14:07:05.099Z,6.93
2018-09-06T14:09:33.049Z,6.80
2018-09-06T14:12:02.673Z,7.10
2018-09-06T14:14:30.491Z,6.63
2018-09-06T14:16:58.327Z,6.20
2018-09-06T14:19:26.208Z,6.90
2018-09-06T14:21:54.036Z,7.07
2018-09-06T14:24:21.842Z,7.37
2018-09-06T14:26:49.670Z,6.43
2018-09-06T14:29:18.162Z,7.60
2018-09-06T14:31:46.776Z,6.93
2018-09-06T14:34:15.420Z,7.87
2018-09-06T14:36:43.238Z,6.70
2018-09-06T14:39:11.079Z,6.73
2018-09-06T14:41:38.908Z,6.83
2018-09-06T14:44:06.786Z,6.50
2018-09-06T14:46:34.590Z,6.00
2018-09-06T14:49:02.406Z,6.37
2018-09-06T14:51:30.957Z,6.27
2018-09-06T14:53:58.771Z,6.70
2018-09-06T14:56:26.742Z,6.27
2018-09-06T14:58:55.299Z,5.87
2018-09-06T15:01:23.716Z,6.47
2018-09-06T15:03:51.558Z,6.50
2018-09-06T15:06:19.376Z,6.73
2018-09-06T15:08:47.690Z,6.33
2018-09-06T15:11:15.571Z,6.63
2018-09-06T15:13:43.566Z,6.30
2018-09-06T15:16:11.479Z,6.07
2018-09-06T15:18:40.097Z,5.73
2018-09-06T15:21:08.020Z,10.47
2018-09-06T15:23:35.938Z,5.83
2018-09-06T15:26:03.857Z,5.77
2018-09-06T15:28:31.799Z,6.03
2018-09-06T15:31:00.305Z,5.93
2018-09-06T15:33:28.917Z,5.73
2018-09-06T15:35:57.557Z,5.87
2018-09-06T15:38:26.193Z,6.07
2018-09-06T15:40:54.513Z,5.33
2018-09-06T15:43:22.368Z,5.47
2018-09-06T15:45:50.205Z,5.57
2018-09-06T15:48:18.089Z,5.83
2018-09-06T15:50:45.962Z,5.83
2018-09-06T15:53:13.826Z,7.33
2018-09-06T15:55:41.733Z,7.63
2018-09-06T15:58:09.578Z,7.03
2018-09-06T16:00:37.443Z,7.27
2018-09-06T16:03:05.317Z,7.40
2018-09-06T16:05:33.160Z,7.63
2018-09-06T16:08:01.059Z,7.57
2018-09-06T16:10:28.951Z,8.20
2018-09-06T16:12:57.476Z,8.77
2018-09-06T16:15:25.286Z,8.77
2018-09-06T16:17:53.439Z,8.93
2018-09-06T16:20:21.324Z,9.13
2018-09-06T16:22:49.278Z,9.17
2018-09-06T16:25:17.135Z,7.23
2018-09-06T16:27:45.320Z,5.87
2018-09-06T16:30:13.212Z,5.47
2018-09-06T16:32:41.840Z,5.57
2018-09-06T16:35:10.471Z,6.10
2018-09-06T16:37:39.193Z,5.00
2018-09-06T16:40:07.128Z,5.90
2018-09-06T16:42:34.955Z,5.37
2018-09-06T16:45:02.826Z,4.80
2018-09-06T16:47:30.696Z,5.53
2018-09-06T16:49:58.534Z,5.13
2018-09-06T16:52:26.367Z,5.13
2018-09-06T16:54:54.271Z,5.70
2018-09-06T16:57:22.890Z,5.33
2018-09-06T16:59:50.756Z,4.70
2018-09-06T17:02:18.582Z,6.50
2018-09-06T17:04:46.523Z,4.63
2018-09-06T17:07:14.956Z,5.40
2018-09-06T17:09:42.807Z,5.80
2018-09-06T17:12:10.788Z,5.50
2018-09-06T17:14:39.040Z,5.50
2018-09-06T17:17:06.896Z,5.80
2018-09-06T17:19:34.831Z,6.03
2018-09-06T17:22:02.695Z,5.40
2018-09-06T17:24:30.687Z,5.07
2018-09-06T17:26:58.608Z,5.20
2018-09-06T17:29:26.472Z,5.27
2018-09-06T17:31:54.715Z,5.37
2018-09-06T17:34:22.626Z,5.13
2018-09-06T17:36:50.654Z,5.17
2018-09-06T17:39:18.780Z,5.00
2018-09-06T17:41:46.627Z,5.23
2018-09-06T17:44:14.443Z,5.27
2018-09-06T17:46:42.527Z,6.00
2018-09-06T17:49:10.635Z,6.00
2018-09-06T17:51:38.613Z,5.83
2018-09-06T17:54:06.511Z,6.20
2018-09-06T17:56:34.404Z,5.53
2018-09-06T17:59:02.436Z,5.43
2018-09-06T18:01:33.504Z,6.63
2018-09-06T18:04:01.635Z,5.70
2018-09-06T18:06:29.767Z,6.97
2018-09-06T18:08:57.641Z,6.40
2018-09-06T18:11:25.551Z,7.40
2018-09-06T18:13:53.405Z,7.70
2018-09-06T18:16:21.298Z,7.43
2018-09-06T18:18:49.139Z,7.27
2018-09-06T18:21:17.140Z,7.50
2018-09-06T18:23:45.026Z,7.57
2018-09-06T18:26:12.834Z,9.13
2018-09-06T18:28:40.670Z,8.67
2018-09-06T18:31:08.501Z,7.53
2018-09-06T18:33:36.335Z,7.47
2018-09-06T18:36:04.712Z,8.27
2018-09-06T18:38:32.531Z,7.97
2018-09-06T18:41:00.347Z,7.80
2018-09-06T18:43:28.196Z,7.73
2018-09-06T18:45:56.043Z,7.93
2018-09-06T18:48:23.923Z,7.60
2018-09-06T18:50:51.767Z,7.23
2018-09-06T18:53:19.728Z,7.50
2018-09-06T18:55:47.581Z,7.83
2018-09-06T18:58:15.499Z,7.40
2018-09-06T19:00:43.340Z,7.17
2018-09-06T19:03:11.216Z,7.83
2018-09-06T19:05:39.314Z,9.07
2018-09-06T19:08:07.829Z,7.93
2018-09-06T19:10:35.683Z,7.87
2018-09-06T19:13:03.649Z,7.70
2018-09-06T19:15:31.483Z,7.37
2018-09-06T19:17:59.428Z,8.27
2018-09-06T19:20:27.311Z,8.53
2018-09-06T19:22:55.661Z,7.97
2018-09-06T19:25:24.837Z,8.13
2018-09-06T19:27:52.882Z,8.80
2018-09-06T19:30:21.286Z,8.03
2018-09-06T19:32:49.125Z,8.13
2018-09-06T19:35:16.988Z,6.33
2018-09-06T19:37:44.908Z,7.00
2018-09-06T19:40:13.135Z,5.90
2018-09-06T19:42:40.974Z,6.40
2018-09-06T19:45:09.577Z,6.47
2018-09-06T19:47:37.439Z,5.23
2018-09-06T19:50:05.474Z,5.60
2018-09-06T19:52:33.547Z,5.40
2018-09-06T19:55:01.779Z,4.83
2018-09-06T19:57:30.008Z,4.73
2018-09-06T19:59:58.402Z,5.50
2018-09-06T20:02:26.450Z,5.70
2018-09-06T20:04:55.417Z,5.47
2018-09-06T20:07:23.240Z,5.37
2018-09-06T20:09:51.087Z,5.80
2018-09-06T20:12:19.360Z,5.23
2018-09-06T20:14:47.181Z,5.37
2018-09-06T20:17:15.047Z,5.13
2018-09-06T20:19:43.080Z,5.60
2018-09-06T20:22:11.899Z,5.23
2018-09-06T20:24:39.947Z,6.17
2018-09-06T20:27:08.339Z,5.60
2018-09-06T20:29:36.185Z,5.60
2018-09-06T20:32:04.140Z,5.77
2018-09-06T20:34:32.102Z,5.03
2018-09-06T20:36:59.969Z,5.30
2018-09-06T20:39:27.780Z,4.90
2018-09-06T20:41:55.655Z,6.07
2018-09-06T20:44:24.012Z,7.63
2018-09-06T20:46:51.961Z,5.43
2018-09-06T20:49:19.963Z,5.30
2018-09-06T20:51:47.813Z,5.97
2018-09-06T20:54:15.695Z,5.17
2018-09-06T20:56:43.540Z,5.57
2018-09-06T20:59:11.377Z,5.23
2018-09-06T21:01:39.227Z,5.83
2018-09-06T21:04:07.137Z,5.83
2018-09-06T21:06:34.959Z,5.80
2018-09-06T21:09:02.948Z,5.80
2018-09-06T21:11:30.856Z,5.93
2018-09-06T21:13:58.859Z,7.33
2018-09-06T21:16:26.740Z,8.63
2018-09-06T21:18:54.675Z,9.20
2018-09-06T21:21:22.511Z,10.20
2018-09-06T21:23:50.396Z,10.17
2018-09-06T21:26:18.224Z,11.27
2018-09-06T21:28:46.168Z,11.50
2018-09-06T21:31:14.014Z,11.67
2018-09-06T21:33:41.836Z,11.63
2018-09-06T21:36:09.689Z,10.80
2018-09-06T21:38:37.519Z,11.20
2018-09-06T21:41:05.348Z,11.03
2018-09-06T21:43:33.299Z,9.73
2018-09-06T21:46:01.156Z,9.63
2018-09-06T21:48:29.411Z,10.97
2018-09-06T21:50:57.259Z,8.53
2018-09-06T21:53:25.154Z,8.60
2018-09-06T21:55:52.991Z,7.77
2018-09-06T21:58:20.817Z,7.93
2018-09-06T22:00:48.668Z,6.93
2018-09-06T22:03:21.688Z,7.50
2018-09-06T22:05:49.536Z,9.27
2018-09-06T22:08:17.372Z,8.50
2018-09-06T22:10:45.316Z,8.33
2018-09-06T22:13:13.227Z,7.77
2018-09-06T22:15:41.130Z,8.03
2018-09-06T22:18:09.810Z,8.67
2018-09-06T22:20:37.726Z,9.03
2018-09-06T22:23:05.790Z,8.67
2018-09-06T22:25:33.664Z,9.30
2018-09-06T22:28:01.596Z,9.30
2018-09-06T22:30:29.471Z,9.13
2018-09-06T22:32:57.300Z,9.37
2018-09-06T22:35:25.151Z,8.77
2018-09-06T22:37:52.974Z,8.00
2018-09-06T22:40:20.801Z,7.97
2018-09-06T22:42:48.647Z,7.87
2018-09-06T22:45:16.505Z,8.10
2018-09-06T22:47:44.324Z,7.30
2018-09-06T22:50:12.156Z,7.47
2018-09-06T22:52:40.615Z,7.10
2018-09-06T22:55:08.453Z,7.90
2018-09-06T22:57:36.267Z,7.87
2018-09-06T23:00:04.446Z,7.33
2018-09-06T23:02:37.506Z,7.37
2018-09-06T23:05:05.390Z,7.53
2018-09-06T23:07:33.231Z,7.77
2018-09-06T23:10:01.079Z,7.50
2018-09-06T23:12:28.955Z,6.67
2018-09-06T23:14:56.817Z,7.77
2018-09-06T23:17:25.383Z,6.73
2018-09-06T23:19:53.213Z,8.37
2018-09-06T23:22:21.027Z,7.10
2018-09-06T23:24:49.042Z,6.60
2018-09-06T23:27:16.891Z,8.13
2018-09-06T23:29:44.706Z,6.80
2018-09-06T23:32:12.564Z,7.33
2018-09-06T23:34:40.387Z,6.77
2018-09-06T23:37:08.206Z,6.83
2018-09-06T23:39:36.026Z,7.30
2018-09-06T23:42:03.938Z,6.97
2018-09-06T23:44:31.775Z,6.57
2018-09-06T23:46:59.612Z,7.00
2018-09-06T23:49:27.810Z,6.33
2018-09-06T23:51:55.631Z,6.57
2018-09-06T23:54:24.032Z,6.73
2018-09-06T23:56:52.030Z,6.63
2018-09-06T23:59:19.887Z,6.93
